createdAt,value
2022-08-22T00:02:55.978Z,97490.53
2022-08-22T00:02:56.461Z,97520.01
2022-08-22T00:03:07.259Z,97485.40
2022-08-22T00:03:07.476Z,97485.23
2022-08-22T00:03:07.477Z,97455.61
2022-08-22T00:03:15.477Z,97456.36
2022-08-22T00:03:25.124Z,97455.08
2022-08-22T00:06:15.254Z,97453.75
2022-08-22T00:08:57.353Z,97450.64
2022-08-22T00:11:39.378Z,97448.60
2022-08-22T00:14:21.133Z,97443.58
2022-08-22T00:17:04.548Z,97438.84
2022-08-22T00:19:52.427Z,97437.91
2022-08-22T00:22:32.912Z,97436.15
2022-08-22T00:25:25.644Z,97434.70
2022-08-22T00:28:05.894Z,97433.53
2022-08-22T00:30:47.819Z,97428.85
2022-08-22T00:33:28.720Z,97431.39
2022-08-22T00:36:14.404Z,97424.84
2022-08-22T00:38:54.018Z,97425.38
2022-08-22T00:41:42.068Z,97424.11
2022-08-22T00:44:51.039Z,97418.84
2022-08-22T00:47:40.709Z,97420.80
2022-08-22T00:50:40.951Z,97424.85
2022-08-22T00:53:47.016Z,97421.39
2022-08-22T00:56:45.970Z,97424.69
2022-08-22T00:59:49.578Z,97422.38
2022-08-22T01:02:40.800Z,97422.17
2022-08-22T01:05:32.580Z,97422.02
2022-08-22T01:08:23.469Z,97422.25
2022-08-22T01:11:11.447Z,97422.47
2022-08-22T01:14:04.885Z,97427.08
2022-08-22T01:17:00.549Z,97428.30
2022-08-22T01:20:02.323Z,97434.76
2022-08-22T01:23:06.119Z,97437.52
2022-08-22T01:26:25.576Z,97442.98
2022-08-22T01:29:28.213Z,97445.39
2022-08-22T01:32:57.072Z,97445.75
2022-08-22T01:35:45.905Z,97443.91
2022-08-22T01:38:38.363Z,97443.30
2022-08-22T01:41:27.704Z,97443.78
2022-08-22T01:44:14.816Z,97443.20
2022-08-22T01:46:59.702Z,97443.92
2022-08-22T01:49:44.556Z,97446.97
2022-08-22T01:52:20.043Z,97447.48
2022-08-22T01:54:57.766Z,97444.05
2022-08-22T01:57:30.114Z,97445.84
2022-08-22T02:00:06.593Z,97443.08
2022-08-22T02:03:00.359Z,97437.80
2022-08-22T02:05:37.379Z,97438.59
2022-08-22T02:08:28.319Z,97438.14
2022-08-22T02:11:06.921Z,97440.49
2022-08-22T02:13:59.818Z,97438.99
2022-08-22T02:16:39.440Z,97445.86
2022-08-22T02:19:26.946Z,97443.23
2022-08-22T02:22:02.800Z,97442.38
2022-08-22T02:24:50.644Z,97441.85
2022-08-22T02:27:46.859Z,97445.63
2022-08-22T02:30:22.660Z,97450.05
2022-08-22T02:33:05.810Z,97450.95
2022-08-22T02:35:44.292Z,97452.58
2022-08-22T02:38:32.088Z,97456.31
2022-08-22T02:41:11.443Z,97460.09
2022-08-22T02:43:49.750Z,97461.38
2022-08-22T02:46:29.375Z,97457.69
2022-08-22T02:49:11.764Z,97456.63
2022-08-22T02:51:52.905Z,97455.65
2022-08-22T02:54:26.878Z,97456.55
2022-08-22T02:57:11.390Z,97450.91
2022-08-22T03:03:16.429Z,97449.14
2022-08-22T03:06:00.529Z,97447.07
2022-08-22T03:08:32.356Z,97446.85
2022-08-22T03:11:19.551Z,97443.36
2022-08-22T03:14:00.956Z,97447.80
2022-08-22T03:16:38.153Z,97447.47
2022-08-22T03:19:18.680Z,97448.76
2022-08-22T03:21:56.988Z,97452.25
2022-08-22T03:24:31.423Z,97451.85
2022-08-22T03:27:05.763Z,97452.54
2022-08-22T03:29:37.724Z,97450.70
2022-08-22T03:32:13.877Z,97455.09
2022-08-22T03:34:57.087Z,97449.09
2022-08-22T03:37:36.869Z,97441.94
2022-08-22T03:40:22.096Z,97446.44
2022-08-22T03:43:21.860Z,97446.77
2022-08-22T03:46:35.687Z,97441.98
2022-08-22T03:49:32.692Z,97451.31
2022-08-22T03:52:33.637Z,97450.70
2022-08-22T03:55:20.617Z,97451.42
2022-08-22T03:58:23.917Z,97452.60
2022-08-22T04:01:19.348Z,97445.81
2022-08-22T04:04:19.687Z,97443.14
2022-08-22T04:07:32.377Z,97446.13
2022-08-22T04:10:24.603Z,97446.30
2022-08-22T04:13:26.693Z,97451.60
2022-08-22T04:16:36.222Z,97450.10
2022-08-22T04:19:33.408Z,97455.41
2022-08-22T04:22:26.588Z,97458.70
2022-08-22T04:24:59.326Z,97461.09
2022-08-22T04:27:34.153Z,97464.30
2022-08-22T04:30:10.654Z,97462.09
2022-08-22T04:32:44.399Z,97462.13
2022-08-22T04:35:18.152Z,97462.55
2022-08-22T04:37:53.380Z,97460.27
2022-08-22T04:40:25.777Z,97460.80
2022-08-22T04:43:00.499Z,97464.50
2022-08-22T04:45:38.608Z,97466.97
2022-08-22T04:48:13.123Z,97468.34
2022-08-22T04:50:50.625Z,97470.09
2022-08-22T04:53:30.893Z,97471.40
2022-08-22T04:56:07.878Z,97472.70
2022-08-22T04:58:46.266Z,97475.13
2022-08-22T05:01:17.974Z,97476.84
2022-08-22T05:03:51.985Z,97477.93
2022-08-22T05:06:25.812Z,97475.14
2022-08-22T05:08:56.468Z,97476.27
2022-08-22T05:11:25.263Z,97474.69
2022-08-22T05:13:57.090Z,97479.45
2022-08-22T05:16:30.392Z,97482.36
2022-08-22T05:19:02.908Z,97487.16
2022-08-22T05:21:35.482Z,97489.40
2022-08-22T05:24:07.956Z,97489.23
2022-08-22T05:26:40.402Z,97494.71
2022-08-22T05:29:11.560Z,97491.03
2022-08-22T05:31:46.241Z,97495.85
2022-08-22T05:34:19.441Z,97499.10
2022-08-22T05:36:54.038Z,97501.92
2022-08-22T05:39:25.372Z,97505.37
2022-08-22T05:42:00.796Z,97507.39
2022-08-22T05:44:32.723Z,97511.41
2022-08-22T05:47:04.693Z,97509.11
2022-08-22T05:49:39.556Z,97509.64
2022-08-22T05:52:19.097Z,97512.73
2022-08-22T05:54:56.897Z,97519.80
2022-08-22T05:57:29.999Z,97520.89
2022-08-22T06:00:04.783Z,97523.40
2022-08-22T06:02:53.420Z,97525.31
2022-08-22T06:05:27.126Z,97525.89
2022-08-22T06:08:02.327Z,97525.45
2022-08-22T06:10:39.711Z,97528.93
2022-08-22T06:13:12.899Z,97527.03
2022-08-22T06:15:47.801Z,97528.39
2022-08-22T06:18:24.519Z,97531.38
2022-08-22T06:20:55.708Z,97528.96
2022-08-22T06:23:28.468Z,97532.48
2022-08-22T06:26:00.255Z,97530.96
2022-08-22T06:28:34.060Z,97534.83
2022-08-22T06:31:04.309Z,97539.28
2022-08-22T06:33:43.287Z,97541.34
2022-08-22T06:36:33.216Z,97543.64
2022-08-22T06:39:11.637Z,97543.16
2022-08-22T06:41:45.657Z,97544.50
2022-08-22T06:44:18.056Z,97545.16
2022-08-22T06:46:50.088Z,97547.61
2022-08-22T06:49:20.578Z,97549.86
2022-08-22T06:51:50.446Z,97549.39
2022-08-22T06:54:21.379Z,97548.61
2022-08-22T06:56:52.588Z,97547.91
2022-08-22T06:59:22.973Z,97551.58
2022-08-22T07:01:56.316Z,97551.05
2022-08-22T07:04:27.253Z,97550.92
2022-08-22T07:06:57.108Z,97551.03
2022-08-22T07:09:27.985Z,97555.81
2022-08-22T07:11:59.629Z,97557.77
2022-08-22T07:14:32.009Z,97556.85
2022-08-22T07:17:02.924Z,97558.30
2022-08-22T07:19:36.501Z,97559.27
2022-08-22T07:22:15.010Z,97559.96
2022-08-22T07:24:47.813Z,97558.18
2022-08-22T07:27:25.642Z,97556.48
2022-08-22T07:30:02.539Z,97558.91
2022-08-22T07:32:42.533Z,97558.73
2022-08-22T07:35:15.079Z,97559.65
2022-08-22T07:37:59.096Z,97561.96
2022-08-22T07:40:35.637Z,97565.61
2022-08-22T07:43:16.999Z,97566.88
2022-08-22T07:45:50.274Z,97565.94
2022-08-22T07:48:26.170Z,97565.20
2022-08-22T07:51:01.317Z,97574.34
2022-08-22T07:53:37.288Z,97572.73
2022-08-22T07:56:09.277Z,97577.23
2022-08-22T07:58:41.337Z,97578.61
2022-08-22T08:01:14.626Z,97577.20
2022-08-22T08:03:51.002Z,97576.27
2022-08-22T08:06:22.487Z,97576.16
2022-08-22T08:08:52.020Z,97577.09
2022-08-22T08:11:22.626Z,97578.44
2022-08-22T08:13:57.540Z,97575.67
2022-08-22T08:16:28.499Z,97574.73
2022-08-22T08:18:59.692Z,97572.63
2022-08-22T08:21:31.535Z,97573.14
2022-08-22T08:24:01.038Z,97569.69
2022-08-22T08:26:33.690Z,97571.08
2022-08-22T08:29:03.282Z,97571.80
2022-08-22T08:31:37.311Z,97575.27
2022-08-22T08:34:14.758Z,97574.86
2022-08-22T08:36:51.035Z,97571.56
2022-08-22T08:39:24.829Z,97570.83
2022-08-22T08:42:32.778Z,97569.98
2022-08-22T08:45:18.367Z,97570.59
2022-08-22T08:48:03.798Z,97574.05
2022-08-22T08:50:46.613Z,97570.23
2022-08-22T08:53:50.247Z,97567.14
2022-08-22T08:56:27.256Z,97568.83
2022-08-22T08:59:03.341Z,97568.46
2022-08-22T09:02:09.513Z,97566.41
2022-08-22T09:05:19.587Z,97563.89
2022-08-22T09:08:18.507Z,97564.20
2022-08-22T09:11:27.054Z,97568.88
2022-08-22T09:14:11.726Z,97571.61
2022-08-22T09:17:17.121Z,97575.66
2022-08-22T09:20:17.790Z,97576.64
2022-08-22T09:23:13.857Z,97578.59
2022-08-22T09:25:44.349Z,97579.98
2022-08-22T09:28:19.168Z,97583.33
2022-08-22T09:31:22.208Z,97586.85
2022-08-22T09:33:58.789Z,97591.68
2022-08-22T09:36:33.971Z,97587.77
2022-08-22T09:39:11.509Z,97584.55
2022-08-22T09:41:51.596Z,97579.20
2022-08-22T09:44:30.181Z,97577.17
2022-08-22T09:47:10.219Z,97566.64
2022-08-22T09:49:48.273Z,97562.23
2022-08-22T09:52:33.927Z,97566.85
2022-08-22T09:55:18.249Z,97577.33
2022-08-22T09:58:12.152Z,97575.76
2022-08-22T10:00:54.602Z,97583.16
2022-08-22T10:03:51.392Z,97583.69
2022-08-22T10:06:26.571Z,97585.29
2022-08-22T10:09:03.841Z,97588.61
2022-08-22T10:11:34.471Z,97587.33
2022-08-22T10:14:14.772Z,97588.16
2022-08-22T10:17:01.234Z,97590.20
2022-08-22T10:19:36.281Z,97585.82
2022-08-22T10:22:19.895Z,97586.41
2022-08-22T10:24:59.562Z,97585.25
2022-08-22T10:27:48.566Z,97582.84
2022-08-22T10:30:20.424Z,97583.98
2022-08-22T10:32:57.493Z,97588.23
2022-08-22T10:35:33.904Z,97587.66
2022-08-22T10:38:10.654Z,97588.80
2022-08-22T10:40:47.733Z,97583.50
2022-08-22T10:43:28.844Z,97589.14
2022-08-22T10:46:03.559Z,97583.52
2022-08-22T10:48:40.279Z,97582.39
2022-08-22T10:51:31.281Z,97583.21
2022-08-22T10:54:28.701Z,97577.92
2022-08-22T10:57:22.718Z,97575.50
2022-08-22T11:00:01.538Z,97572.81
2022-08-22T11:02:45.095Z,97572.80
2022-08-22T11:05:25.436Z,97573.26
2022-08-22T11:08:06.924Z,97573.21
2022-08-22T11:10:50.582Z,97569.66
2022-08-22T11:13:28.824Z,97574.63
2022-08-22T11:16:06.187Z,97576.88
2022-08-22T11:18:57.956Z,97575.09
2022-08-22T11:21:48.315Z,97578.44
2022-08-22T11:24:56.775Z,97578.30
2022-08-22T11:27:40.207Z,97578.03
2022-08-22T11:30:18.743Z,97579.52
2022-08-22T11:33:09.648Z,97576.38
2022-08-22T11:35:42.701Z,97569.73
2022-08-22T11:38:23.716Z,97571.39
2022-08-22T11:41:00.897Z,97572.77
2022-08-22T11:43:49.968Z,97563.09
2022-08-22T11:46:23.282Z,97562.17
2022-08-22T11:49:06.454Z,97566.00
2022-08-22T11:51:57.833Z,97573.13
2022-08-22T11:54:39.063Z,97568.33
2022-08-22T11:57:13.465Z,97560.17
2022-08-22T12:00:06.061Z,97554.37
2022-08-22T12:02:47.494Z,97546.98
2022-08-22T12:05:24.508Z,97544.77
2022-08-22T12:08:03.456Z,97539.58
2022-08-22T12:10:36.885Z,97539.42
2022-08-22T12:13:11.291Z,97535.06
2022-08-22T12:15:47.438Z,97533.37
2022-08-22T12:18:41.911Z,97535.20
2022-08-22T12:21:31.793Z,97534.80
2022-08-22T12:24:19.423Z,97535.32
2022-08-22T12:27:07.892Z,97528.77
2022-08-22T12:29:48.523Z,97525.93
2022-08-22T12:32:52.196Z,97524.48
2022-08-22T12:35:33.912Z,97520.45
2022-08-22T12:38:28.292Z,97518.66
2022-08-22T12:41:28.433Z,97520.64
2022-08-22T12:44:24.099Z,97525.20
2022-08-22T12:47:14.412Z,97527.53
2022-08-22T12:50:05.426Z,97531.61
2022-08-22T12:52:58.781Z,97539.77
2022-08-22T12:55:45.719Z,97543.55
2022-08-22T12:58:30.554Z,97548.06
2022-08-22T13:01:06.513Z,97545.53
2022-08-22T13:03:41.402Z,97544.65
2022-08-22T13:06:48.598Z,97546.47
2022-08-22T13:09:28.518Z,97550.07
2022-08-22T13:12:03.626Z,97547.75
2022-08-22T13:14:34.144Z,97549.08
2022-08-22T13:17:10.034Z,97553.98
2022-08-22T13:20:08.675Z,97555.60
2022-08-22T13:22:41.551Z,97554.56
2022-08-22T13:25:26.136Z,97558.41
2022-08-22T13:27:55.673Z,97559.59
2022-08-22T13:30:30.962Z,97557.79
2022-08-22T13:33:08.944Z,97558.32
2022-08-22T13:35:44.548Z,97555.17
2022-08-22T13:38:25.883Z,97549.91
2022-08-22T13:40:57.222Z,97546.94
2022-08-22T13:43:26.683Z,97543.44
2022-08-22T13:45:58.619Z,97536.94
2022-08-22T13:48:47.289Z,97534.56
2022-08-22T13:51:24.025Z,97534.19
2022-08-22T13:54:00.962Z,97534.49
2022-08-22T13:56:39.186Z,97541.69
2022-08-22T13:59:47.192Z,97543.76
2022-08-22T14:02:31.003Z,97544.25
2022-08-22T14:05:07.531Z,97537.09
2022-08-22T14:07:44.281Z,97535.43
2022-08-22T14:10:21.955Z,97529.23
2022-08-22T14:13:20.947Z,97525.86
2022-08-22T14:15:49.434Z,97517.11
2022-08-22T14:18:31.470Z,97515.20
2022-08-22T14:21:40.536Z,97508.92
2022-08-22T14:24:18.970Z,97510.05
2022-08-22T14:26:58.135Z,97511.92
2022-08-22T14:29:31.727Z,97505.72
2022-08-22T14:32:04.758Z,97501.50
2022-08-22T14:34:42.017Z,97504.41
2022-08-22T14:37:22.121Z,97515.95
2022-08-22T14:39:56.441Z,97521.13
2022-08-22T14:42:30.654Z,97529.59
2022-08-22T14:45:06.434Z,97540.81
2022-08-22T14:47:55.290Z,97561.97
2022-08-22T14:50:42.522Z,97548.94
2022-08-22T14:53:22.172Z,97550.90
2022-08-22T14:56:00.701Z,97558.42
2022-08-22T14:58:32.635Z,97569.09
2022-08-22T15:01:10.546Z,97572.98
2022-08-22T15:03:42.712Z,97570.10
2022-08-22T15:06:16.227Z,97569.85
2022-08-22T15:08:51.374Z,97566.04
2022-08-22T15:11:26.468Z,97562.09
2022-08-22T16:14:23.542Z,97554.16
2022-08-22T16:17:03.794Z,97563.09
2022-08-22T16:19:39.783Z,97565.47
2022-08-22T16:22:15.723Z,97560.98
2022-08-22T16:25:10.295Z,97560.56
2022-08-22T16:27:58.751Z,97569.94
2022-08-22T16:30:38.648Z,97562.42
2022-08-22T16:33:17.654Z,97562.83
2022-08-22T16:36:25.088Z,97566.79
2022-08-22T16:38:59.003Z,97577.11
2022-08-22T16:41:40.325Z,97577.77
2022-08-22T16:44:40.140Z,97572.52
2022-08-22T16:47:18.763Z,97575.90
2022-08-22T16:50:05.906Z,97584.21
2022-08-22T16:52:56.254Z,97587.56
2022-08-22T16:55:50.008Z,97583.38
2022-08-22T16:58:56.539Z,97577.69
2022-08-22T17:01:48.075Z,97583.83
2022-08-22T17:04:33.245Z,97595.20
2022-08-22T17:07:15.776Z,97590.76
2022-08-22T17:10:12.235Z,97595.02
2022-08-22T17:13:00.462Z,97604.86
2022-08-22T17:15:44.851Z,97602.69
2022-08-22T17:18:35.110Z,97605.45
2022-08-22T17:21:14.560Z,97613.69
2022-08-22T17:23:53.678Z,97613.85
2022-08-22T17:26:46.114Z,97614.74
2022-08-22T17:29:27.537Z,97612.27
2022-08-22T17:32:11.854Z,97615.58
2022-08-22T17:34:59.720Z,97610.20
2022-08-22T17:37:45.581Z,97612.76
2022-08-22T17:40:32.073Z,97620.76
2022-08-22T17:43:16.333Z,97624.29
2022-08-22T17:46:02.934Z,97618.27
2022-08-22T17:48:48.064Z,97609.57
2022-08-22T17:51:28.831Z,97599.92
2022-08-22T17:54:04.040Z,97601.89
2022-08-22T17:56:44.345Z,97610.17
2022-08-22T17:59:21.689Z,97609.00
2022-08-22T18:01:59.759Z,97608.60
2022-08-22T18:04:44.450Z,97611.35
2022-08-22T18:07:35.451Z,97623.23
2022-08-22T18:10:21.363Z,97631.40
2022-08-22T18:13:06.174Z,97629.81
2022-08-22T18:15:51.305Z,97632.13
2022-08-22T18:18:32.051Z,97635.16
2022-08-22T18:21:10.432Z,97635.40
2022-08-22T18:23:45.989Z,97636.19
2022-08-22T18:26:29.194Z,97639.36
2022-08-22T18:29:09.302Z,97632.48
2022-08-22T18:31:50.402Z,97629.84
2022-08-22T18:34:26.428Z,97620.45
2022-08-22T18:37:05.063Z,97621.14
2022-08-22T18:39:54.752Z,97623.66
2022-08-22T18:42:34.358Z,97619.43
2022-08-22T18:45:07.777Z,97618.66
2022-08-22T18:47:39.423Z,97622.39
2022-08-22T18:50:31.263Z,97624.34
2022-08-22T18:53:04.539Z,97620.44
2022-08-22T18:55:56.192Z,97626.33
2022-08-22T18:59:05.414Z,97632.67
2022-08-22T19:01:52.450Z,97643.79
2022-08-22T19:04:58.731Z,97635.59
2022-08-22T19:07:51.099Z,97625.46
2022-08-22T19:10:46.309Z,97618.73
2022-08-22T19:13:36.170Z,97615.02
2022-08-22T19:16:38.875Z,97608.40
2022-08-22T19:19:17.358Z,97608.47
2022-08-22T19:25:28.771Z,97611.77
2022-08-22T19:28:22.484Z,97608.68
2022-08-22T19:30:55.386Z,97607.95
2022-08-22T19:33:34.680Z,97606.64
2022-08-22T19:36:13.138Z,97600.95
2022-08-22T19:39:01.073Z,97604.57
2022-08-22T19:41:45.124Z,97604.77
2022-08-22T19:44:33.019Z,97606.92
2022-08-22T19:47:11.189Z,97609.08
2022-08-22T19:49:44.120Z,97612.53
2022-08-22T19:52:25.755Z,97609.77
2022-08-22T19:55:03.000Z,97615.95
2022-08-22T19:57:41.627Z,97612.91
2022-08-22T20:00:14.179Z,97610.59
2022-08-22T20:02:58.124Z,97609.41
2022-08-22T20:05:34.417Z,97604.48
2022-08-22T20:08:18.798Z,97606.98
2022-08-22T20:10:58.253Z,97602.05
2022-08-22T20:13:30.536Z,97603.30
2022-08-22T20:16:10.611Z,97600.59
2022-08-22T20:18:53.496Z,97596.08
2022-08-22T20:21:43.337Z,97591.13
2022-08-22T20:24:16.020Z,97592.63
2022-08-22T20:27:10.024Z,97590.97
2022-08-22T20:29:36.337Z,97591.45
2022-08-22T20:32:06.186Z,97587.15
2022-08-22T20:34:38.665Z,97586.79
2022-08-22T20:37:29.524Z,97589.70
2022-08-22T20:40:07.635Z,97585.48
2022-08-22T20:42:59.378Z,97584.67
2022-08-22T20:45:30.671Z,97581.46
2022-08-22T20:48:02.206Z,97583.29
2022-08-22T20:50:32.495Z,97580.92
2022-08-22T20:53:14.993Z,97574.52
2022-08-22T20:55:53.077Z,97573.46
2022-08-22T20:58:24.334Z,97568.10
2022-08-22T21:00:56.137Z,97562.61
2022-08-22T21:03:36.891Z,97559.45
2022-08-22T21:06:13.588Z,97560.02
2022-08-22T21:08:43.311Z,97557.33
2022-08-22T21:11:40.529Z,97554.12
2022-08-22T21:14:19.527Z,97553.10
2022-08-22T21:16:48.194Z,97561.48
2022-08-22T21:19:24.020Z,97557.22
2022-08-22T21:22:09.482Z,97549.50
2022-08-22T21:24:38.033Z,97544.77
2022-08-22T21:27:07.213Z,97545.11
2022-08-22T21:29:44.132Z,97543.16
2022-08-22T21:32:23.167Z,97545.16
2022-08-22T21:34:52.220Z,97547.09
2022-08-22T21:37:26.343Z,97547.15
2022-08-22T21:40:03.085Z,97542.97
2022-08-22T21:42:35.127Z,97545.96
2022-08-22T21:45:09.670Z,97557.26
2022-08-22T21:47:40.257Z,97551.93
2022-08-22T21:50:24.277Z,97551.17
2022-08-22T21:53:11.812Z,97569.23
2022-08-22T21:55:42.440Z,97606.77
2022-08-22T21:58:35.978Z,97601.82
2022-08-22T22:01:29.916Z,97598.75
2022-08-22T22:03:59.441Z,97620.35
2022-08-22T22:06:28.115Z,97638.70
2022-08-22T22:08:56.272Z,97628.62
2022-08-22T22:11:24.483Z,97621.52
2022-08-22T22:13:52.906Z,97629.59
2022-08-22T22:16:25.209Z,97663.65
2022-08-22T22:18:53.628Z,97679.02
2022-08-22T22:21:22.362Z,97665.48
2022-08-22T22:23:51.828Z,97644.52
2022-08-22T22:26:22.967Z,97641.57
2022-08-22T22:28:50.548Z,97632.23
2022-08-22T22:31:18.702Z,97633.09
2022-08-22T22:33:46.968Z,97633.86
2022-08-22T22:36:20.132Z,97635.38
2022-08-22T22:38:48.707Z,97636.05
2022-08-22T22:41:24.613Z,97639.91
2022-08-22T22:43:53.137Z,97633.43
2022-08-22T22:46:21.793Z,97633.95
2022-08-22T22:48:50.454Z,97624.63
2022-08-22T22:51:21.730Z,97611.52
2022-08-22T22:53:50.261Z,97610.35
2022-08-22T22:56:23.632Z,97610.27
2022-08-22T22:59:00.625Z,97604.02
2022-08-22T23:01:31.955Z,97606.20
2022-08-22T23:04:05.678Z,97606.59
2022-08-22T23:06:34.255Z,97599.34
2022-08-22T23:09:02.997Z,97599.09
2022-08-22T23:11:31.659Z,97593.09
2022-08-22T23:14:01.737Z,97586.27
2022-08-22T23:16:36.506Z,97578.70
2022-08-22T23:19:08.964Z,97571.98
2022-08-22T23:21:37.167Z,97560.52
2022-08-22T23:24:06.050Z,97550.25
2022-08-22T23:26:37.108Z,97551.28
2022-08-22T23:29:06.156Z,97553.88
2022-08-22T23:31:40.962Z,97561.41
2022-08-22T23:34:12.620Z,97573.88
2022-08-22T23:36:43.125Z,97578.53
2022-08-22T23:39:13.053Z,97580.63
2022-08-22T23:41:42.133Z,97575.82
2022-08-22T23:44:13.772Z,97573.89
2022-08-22T23:46:42.984Z,97561.33
2022-08-22T23:49:13.502Z,97561.58
2022-08-22T23:51:43.006Z,97558.55
2022-08-22T23:54:12.131Z,97561.12
2022-08-22T23:56:43.985Z,97564.54
2022-08-22T23:59:14.453Z,97560.96
